Time;durP1;ratioP1;P1;durP2;ratioP2;P2;SDS_P1;SDS_P2;PMS_P1;PMS_P2;Temp;Humidity;BMP_temperature;BMP_pressure;BME280_temperature;BME280_humidity;BME280_pressure;Samples;Min_cycle;Max_cycle;Signal;HPM_P1;HPM_P2
2021/03/07 00:00:25;;;;;;;1999.90;999.90;;;1.00;99.90;;;;;;6220968;23;20024;-94
2021/03/07 00:02:59;;;;;;;1999.90;999.90;;;1.00;99.90;;;;;;6219807;23;20017;-94
2021/03/07 00:05:27;;;;;;;1999.90;999.90;;;1.00;99.90;;;;;;6219831;23;20027;-96
2021/03/07 00:08:10;;;;;;;1999.90;999.90;;;0.90;99.90;;;;;;6217663;23;20025;-95
2021/03/07 00:10:45;;;;;;;1999.90;999.90;;;0.90;99.90;;;;;;6218566;23;20024;-96
2021/03/07 00:13:24;;;;;;;1999.90;999.90;;;0.90;99.90;;;;;;6218299;23;20044;-96
2021/03/07 00:16:01;;;;;;;1999.90;999.90;;;0.80;99.90;;;;;;6217920;23;20447;-96
2021/03/07 00:18:35;;;;;;;1999.90;999.90;;;0.80;99.90;;;;;;6218258;23;20020;-96
2021/03/07 00:25:21;;;;;;;1999.90;999.90;;;0.80;99.90;;;;;;5983574;24;20500;-95
2021/03/07 00:27:48;;;;;;;1999.90;999.90;;;0.70;99.90;;;;;;6167248;23;20048;-96
2021/03/07 00:30:21;;;;;;;1999.90;999.90;;;0.70;99.90;;;;;;6217912;23;20021;-95
2021/03/07 00:32:49;;;;;;;1999.90;999.90;;;0.70;99.90;;;;;;6218631;23;20319;-96
2021/03/07 00:35:25;;;;;;;1999.90;999.90;;;0.70;99.90;;;;;;6218728;23;20027;-95
2021/03/07 00:38:00;;;;;;;1999.90;999.90;;;0.70;99.90;;;;;;6218625;23;20024;-96
2021/03/07 00:40:29;;;;;;;1999.90;999.90;;;0.70;99.90;;;;;;6217519;23;20042;-96
2021/03/07 00:43:10;;;;;;;1999.90;999.90;;;0.70;99.90;;;;;;6217794;23;20074;-96
2021/03/07 00:45:44;;;;;;;1999.90;999.90;;;0.70;99.90;;;;;;6218543;23;20039;-95
2021/03/07 00:48:21;;;;;;;1999.90;999.90;;;0.70;99.90;;;;;;6218120;23;20104;-96
2021/03/07 00:50:54;;;;;;;1999.90;999.90;;;0.70;99.90;;;;;;6219005;23;20021;-96
2021/03/07 00:53:28;;;;;;;1999.90;999.90;;;0.60;99.90;;;;;;6217653;23;20025;-95
2021/03/07 00:56:03;;;;;;;1999.90;999.90;;;0.60;99.90;;;;;;6217596;23;20024;-96
2021/03/07 00:58:44;;;;;;;1999.90;999.90;;;0.60;99.90;;;;;;6218772;23;20024;-95
2021/03/07 01:01:14;;;;;;;1999.90;999.90;;;0.60;99.90;;;;;;6218910;23;20075;-95
2021/03/07 01:03:59;;;;;;;1999.90;999.90;;;0.60;99.90;;;;;;6218092;23;20384;-96
2021/03/07 01:06:55;;;;;;;1999.90;999.90;;;0.60;99.90;;;;;;6218056;23;20025;-96
2021/03/07 01:09:38;;;;;;;1999.90;999.90;;;0.60;99.90;;;;;;6217921;23;20024;-95
2021/03/07 01:12:22;;;;;;;1999.90;999.90;;;0.50;99.90;;;;;;6217527;23;20017;-96
2021/03/07 01:14:52;;;;;;;1999.90;999.90;;;0.60;99.90;;;;;;6217621;23;20043;-96
2021/03/07 01:17:19;;;;;;;1999.90;999.90;;;0.60;99.90;;;;;;6217883;23;20032;-95
2021/03/07 01:20:12;;;;;;;1999.90;999.90;;;0.60;99.90;;;;;;6220046;23;20024;-96
2021/03/07 01:22:54;;;;;;;1999.90;999.90;;;0.60;99.90;;;;;;6217514;23;20023;-96
2021/03/07 01:25:25;;;;;;;1999.90;999.90;;;0.60;99.90;;;;;;6220575;23;20020;-96
2021/03/07 01:27:54;;;;;;;1999.90;999.90;;;0.60;99.90;;;;;;6220380;23;20024;-96
2021/03/07 01:30:23;;;;;;;1999.90;999.90;;;0.50;99.90;;;;;;6218411;23;20137;-96
2021/03/07 01:32:54;;;;;;;1999.90;999.90;;;0.50;99.90;;;;;;6218349;23;20020;-96
2021/03/07 01:35:44;;;;;;;1999.90;999.90;;;0.50;99.90;;;;;;6220151;23;20059;-95
2021/03/07 01:38:18;;;;;;;1999.90;999.90;;;0.50;99.90;;;;;;6221406;23;20432;-95
2021/03/07 01:40:53;;;;;;;1999.90;999.90;;;0.50;99.90;;;;;;6225938;23;20052;-95
2021/03/07 01:43:27;;;;;;;1999.90;999.90;;;0.50;99.90;;;;;;6243472;23;20290;-95
2021/03/07 01:45:56;;;;;;;1999.90;999.90;;;0.60;99.90;;;;;;6243908;23;20013;-96
2021/03/07 01:48:33;;;;;;;1999.90;999.90;;;0.60;99.90;;;;;;6229113;23;20021;-95
2021/03/07 01:51:25;;;;;;;;;;;;;;;;;;;;;
2021/03/07 01:54:03;;;;;;;1999.90;999.90;;;0.60;99.90;;;;;;6219768;23;20028;-96
2021/03/07 01:56:32;;;;;;;1999.90;999.90;;;0.60;99.90;;;;;;6219199;23;20021;-96
2021/03/07 01:59:03;;;;;;;1999.90;999.90;;;0.60;99.90;;;;;;6217871;23;20025;-96
2021/03/07 02:01:32;;;;;;;1999.90;999.90;;;0.60;99.90;;;;;;6218205;23;20020;-96
2021/03/07 02:04:23;;;;;;;1999.90;999.90;;;0.60;99.90;;;;;;6220579;23;20324;-95
2021/03/07 02:06:51;;;;;;;1999.90;999.90;;;0.60;99.90;;;;;;6220456;23;20044;-96
2021/03/07 02:09:51;;;;;;;1999.90;999.90;;;0.70;99.90;;;;;;6222674;23;20435;-96
2021/03/07 02:15:43;;;;;;;1999.90;999.90;;;0.60;99.90;;;;;;6098532;23;20030;-96
2021/03/07 02:18:28;;;;;;;1999.90;999.90;;;0.60;99.90;;;;;;6078171;23;20054;-95
2021/03/07 02:21:27;;;;;;;1999.90;999.90;;;0.60;99.90;;;;;;6206279;23;20029;-96
2021/03/07 02:24:13;;;;;;;1999.90;999.90;;;0.60;99.90;;;;;;6222938;23;20021;-96
2021/03/07 02:26:43;;;;;;;1999.90;999.90;;;0.50;99.90;;;;;;6223008;23;20078;-96
2021/03/07 02:29:28;;;;;;;1999.90;999.90;;;0.60;99.90;;;;;;6222462;23;20020;-96
2021/03/07 02:32:24;;;;;;;1999.90;999.90;;;0.50;99.90;;;;;;6223068;23;20424;-96
2021/03/07 02:35:15;;;;;;;1999.90;999.90;;;0.50;99.90;;;;;;6222866;23;20024;-96
2021/03/07 02:38:05;;;;;;;1999.90;999.90;;;0.50;99.90;;;;;;6221450;23;20028;-96
2021/03/07 02:41:09;;;;;;;1999.90;999.90;;;0.50;99.90;;;;;;6209148;23;20051;-95
2021/03/07 02:43:54;;;;;;;1999.90;999.90;;;0.40;99.90;;;;;;6223699;23;20017;-96
2021/03/07 02:52:48;;;;;;;1999.90;999.90;;;0.40;99.90;;;;;;6223209;23;20070;-95
2021/03/07 02:58:59;;;;;;;1999.90;999.90;;;0.30;99.90;;;;;;6182576;23;20028;-96
2021/03/07 03:05:32;;;;;;;1999.90;999.90;;;0.30;99.90;;;;;;6221640;23;20032;-96
2021/03/07 03:08:25;;;;;;;1999.90;999.90;;;0.30;99.90;;;;;;6222812;23;20028;-96
2021/03/07 03:10:54;;;;;;;1999.90;999.90;;;0.20;99.90;;;;;;6227443;23;20025;-95
2021/03/07 03:13:32;;;;;;;1999.90;999.90;;;0.20;99.90;;;;;;6221590;23;20036;-96
2021/03/07 03:16:11;;;;;;;1999.90;999.90;;;0.20;99.90;;;;;;6221680;23;20025;-96
2021/03/07 03:18:40;;;;;;;1999.90;999.90;;;0.20;99.90;;;;;;6220890;23;20096;-96
2021/03/07 03:21:11;;;;;;;1999.90;999.90;;;0.20;99.90;;;;;;6222753;23;20031;-96
2021/03/07 03:23:40;;;;;;;1999.90;999.90;;;0.20;99.90;;;;;;6223012;23;20027;-96
2021/03/07 03:26:09;;;;;;;1999.90;999.90;;;0.30;99.90;;;;;;6222357;23;20024;-96
2021/03/07 03:28:38;;;;;;;1999.90;999.90;;;0.30;99.90;;;;;;6225950;23;20024;-96
2021/03/07 03:31:07;;;;;;;1999.90;999.90;;;0.20;99.90;;;;;;6225926;23;20024;-96
2021/03/07 03:33:35;;;;;;;1999.90;999.90;;;0.20;99.90;;;;;;6224402;23;20027;-96
2021/03/07 03:36:10;;;;;;;1999.90;999.90;;;0.20;99.90;;;;;;6224423;23;20096;-96
2021/03/07 03:38:40;;;;;;;1999.90;999.90;;;0.20;99.90;;;;;;6219840;23;20025;-96
2021/03/07 03:41:39;;;;;;;1999.90;999.90;;;0.20;99.90;;;;;;6222741;23;20060;-96
2021/03/07 03:48:05;;;;;;;1999.90;999.90;;;0.30;99.90;;;;;;6104479;23;20290;-96
2021/03/07 03:50:38;;;;;;;1999.90;999.90;;;0.20;99.90;;;;;;6103714;23;20094;-95
2021/03/07 03:53:44;;;;;;;1999.90;999.90;;;0.30;99.90;;;;;;6114843;23;20019;-96
2021/03/07 03:56:37;;;;;;;1999.90;999.90;;;0.20;99.90;;;;;;6115811;23;20026;-96
2021/03/07 03:59:06;;;;;;;1999.90;999.90;;;0.20;99.90;;;;;;6116354;23;20061;-96
2021/03/07 04:02:15;;;;;;;1999.90;999.90;;;0.20;99.90;;;;;;6114920;23;20077;-96
2021/03/07 04:04:52;;;;;;;1999.90;999.90;;;0.20;99.90;;;;;;6113146;23;20044;-96
2021/03/07 04:08:08;;;;;;;1999.90;999.90;;;0.20;99.90;;;;;;6111537;23;20371;-96
2021/03/07 04:11:36;;;;;;;1999.90;999.90;;;0.20;99.90;;;;;;6110431;23;20069;-96
2021/03/07 04:14:36;;;;;;;1999.90;999.90;;;0.30;99.90;;;;;;6110492;23;20029;-96
2021/03/07 04:17:18;;;;;;;1999.90;999.90;;;0.20;99.90;;;;;;6090781;23;20109;-96
2021/03/07 04:19:53;;;;;;;1999.90;999.90;;;0.20;99.90;;;;;;6104977;23;20026;-96
2021/03/07 04:22:45;;;;;;;1999.90;999.90;;;0.30;99.90;;;;;;6106310;23;20032;-96
2021/03/07 04:25:22;;;;;;;1999.90;999.90;;;0.30;99.90;;;;;;6208408;23;20498;-96
2021/03/07 04:27:51;;;;;;;1999.90;999.90;;;0.30;99.90;;;;;;6226874;23;20024;-96
2021/03/07 04:37:46;;;;;;;1999.90;999.90;;;0.30;99.90;;;;;;6210106;23;20051;-96
2021/03/07 04:44:00;;;;;;;;;;;;;;;;;;;;;
2021/03/07 04:46:48;;;;;;;1999.90;999.90;;;0.40;99.90;;;;;;6224226;23;20055;-96
2021/03/07 04:49:27;;;;;;;1999.90;999.90;;;0.50;99.90;;;;;;6223472;23;20301;-96
2021/03/07 04:52:09;;;;;;;1999.90;999.90;;;0.50;99.90;;;;;;6224295;23;20032;-96
2021/03/07 04:54:44;;;;;;;1999.90;999.90;;;0.50;99.90;;;;;;6223547;23;20033;-96
2021/03/07 04:57:42;;;;;;;;;;;;;;;;;;;;;
2021/03/07 05:01:05;;;;;;;;;;;0.60;99.90;;;;;;6219054;23;20031;-96
2021/03/07 05:03:36;;;;;;;1999.90;999.90;;;0.70;99.90;;;;;;6162115;23;20315;-96
2021/03/07 05:06:04;;;;;;;1999.90;999.90;;;0.70;99.90;;;;;;6218270;23;20035;-95
2021/03/07 05:08:32;;;;;;;1999.90;999.90;;;0.70;99.90;;;;;;6218073;23;20115;-96
2021/03/07 05:11:00;;;;;;;1999.90;999.90;;;0.70;99.90;;;;;;6218527;23;20075;-96
2021/03/07 05:13:27;;;;;;;1999.90;999.90;;;0.80;99.90;;;;;;6218761;23;20032;-96
2021/03/07 05:15:59;;;;;;;1999.90;999.90;;;0.80;99.90;;;;;;6217892;23;20344;-96
2021/03/07 05:21:21;;;;;;;1999.90;999.90;;;0.80;99.90;;;;;;6217959;23;20024;-95
2021/03/07 05:23:55;;;;;;;1999.90;999.90;;;0.90;99.90;;;;;;6217541;23;20027;-96
2021/03/07 05:26:29;;;;;;;1999.90;999.90;;;0.90;99.90;;;;;;6218213;23;20256;-96
2021/03/07 05:28:56;;;;;;;1999.90;999.90;;;0.90;99.90;;;;;;6217926;23;20021;-96
2021/03/07 05:31:24;;;;;;;1999.90;999.90;;;1.00;99.90;;;;;;6218431;23;20029;-96
2021/03/07 05:33:53;;;;;;;1999.90;999.90;;;1.00;99.90;;;;;;6220605;23;20492;-96
2021/03/07 05:36:20;;;;;;;1999.90;999.90;;;1.00;99.90;;;;;;6219701;23;20324;-96
2021/03/07 05:38:57;;;;;;;1999.90;999.90;;;1.10;99.90;;;;;;6219573;23;20088;-96
2021/03/07 05:41:46;;;;;;;1999.90;999.90;;;1.10;99.90;;;;;;6220078;23;20075;-96
2021/03/07 05:44:32;;;;;;;1999.90;999.90;;;1.10;99.90;;;;;;6220098;23;20017;-96
2021/03/07 05:47:07;;;;;;;1999.90;999.90;;;1.20;99.90;;;;;;6220767;23;20024;-96
2021/03/07 05:49:43;;;;;;;1999.90;999.90;;;1.20;99.90;;;;;;6219565;23;20478;-96
2021/03/07 05:52:17;;;;;;;1999.90;999.90;;;1.20;99.90;;;;;;6218243;23;20031;-96
2021/03/07 05:54:48;;;;;;;1999.90;999.90;;;1.20;99.90;;;;;;6218222;23;20032;-96
2021/03/07 05:57:19;;;;;;;1999.90;999.90;;;1.20;99.90;;;;;;6220072;23;20068;-96
2021/03/07 05:59:47;;;;;;;1999.90;999.90;;;1.30;99.90;;;;;;6220032;23;20024;-96
2021/03/07 06:02:15;;;;;;;1999.90;999.90;;;1.40;99.90;;;;;;6220439;23;20024;-95
2021/03/07 06:05:07;;;;;;;1999.90;999.90;;;1.40;99.90;;;;;;6221197;23;20024;-96
2021/03/07 06:08:22;;;;;;;;;;;;;;;;;;;;;
2021/03/07 06:10:54;;;;;;;1999.90;999.90;;;1.40;99.90;;;;;;6223137;23;20108;-96
2021/03/07 06:13:47;;;;;;;1999.90;999.90;;;1.40;99.90;;;;;;6221973;23;20024;-95
2021/03/07 06:16:39;;;;;;;1999.90;999.90;;;1.50;99.90;;;;;;6223077;23;20376;-95
2021/03/07 06:19:51;;;;;;;1999.90;999.90;;;1.50;99.90;;;;;;6223995;23;20041;-95
2021/03/07 06:22:59;;;;;;;1999.90;999.90;;;1.50;99.90;;;;;;6220622;23;20025;-94
2021/03/07 06:28:25;;;;;;;1999.90;999.90;;;1.50;99.90;;;;;;6217722;23;20327;-95
2021/03/07 06:30:59;;;;;;;1999.90;999.90;;;1.60;99.90;;;;;;6219895;23;20032;-94
2021/03/07 06:33:38;;;;;;;1999.90;999.90;;;1.60;99.90;;;;;;6219600;23;20021;-95
2021/03/07 06:36:31;;;;;;;1999.90;999.90;;;1.60;99.90;;;;;;6219548;23;20432;-95
2021/03/07 06:39:16;;;;;;;1999.90;999.90;;;1.50;99.90;;;;;;6219419;23;20036;-96
2021/03/07 06:42:02;;;;;;;1999.90;999.90;;;1.70;99.90;;;;;;6219787;23;20075;-96
2021/03/07 06:44:33;;;;;;;1999.90;999.90;;;1.60;99.90;;;;;;6219848;23;20317;-95
2021/03/07 06:47:21;;;;;;;1999.90;999.90;;;1.60;99.90;;;;;;6219527;23;20032;-95
2021/03/07 06:49:48;;;;;;;1999.90;999.90;;;1.60;99.90;;;;;;6219764;23;20024;-95
2021/03/07 06:52:17;;;;;;;1999.90;999.90;;;1.60;99.90;;;;;;6218675;23;20032;-94
2021/03/07 06:55:00;;;;;;;1999.90;999.90;;;1.70;99.90;;;;;;6219983;23;20061;-95
2021/03/07 06:57:29;;;;;;;1999.90;999.90;;;1.70;99.90;;;;;;6221622;23;20025;-95
2021/03/07 06:59:56;;;;;;;1999.90;999.90;;;1.70;99.90;;;;;;6220017;23;20044;-95
2021/03/07 07:02:24;;;;;;;1999.90;999.90;;;1.80;99.90;;;;;;6219666;23;20028;-95
2021/03/07 07:04:52;;;;;;;1999.90;999.90;;;1.80;99.90;;;;;;6220194;23;20074;-95
2021/03/07 07:07:29;;;;;;;1999.90;999.90;;;1.80;99.90;;;;;;6223299;23;20075;-95
2021/03/07 07:14:40;;;;;;;;;;;1.80;99.90;;;;;;6043334;23;20059;-95
2021/03/07 07:17:21;;;;;;;1999.90;999.90;;;1.90;99.90;;;;;;6042467;23;19950;-95
2021/03/07 07:19:49;;;;;;;1999.90;999.90;;;1.90;99.90;;;;;;6041101;23;20039;-95
2021/03/07 07:22:17;;;;;;;1999.90;999.90;;;1.90;99.90;;;;;;6182417;23;20032;-96
2021/03/07 07:24:48;;;;;;;1999.90;999.90;;;1.90;99.90;;;;;;6220053;23;20425;-95
2021/03/07 07:27:30;;;;;;;1999.90;999.90;;;1.90;99.90;;;;;;6220938;23;20059;-96
2021/03/07 07:30:10;;;;;;;1999.90;999.90;;;1.90;99.90;;;;;;6218720;23;20447;-95
2021/03/07 07:37:23;;;;;;;1999.90;999.90;;;2.00;99.90;;;;;;6099307;23;20030;-95
2021/03/07 07:40:19;;;;;;;1999.90;999.90;;;2.10;99.90;;;;;;6120337;23;20057;-96
2021/03/07 07:43:24;;;;;;;1999.90;999.90;;;2.20;99.90;;;;;;6129406;23;20021;-95
2021/03/07 07:46:57;;;;;;;1999.90;999.90;;;2.20;99.90;;;;;;6124159;23;20026;-95
2021/03/07 08:05:04;;;;;;;1999.90;999.90;;;2.60;99.90;;;;;;5954711;24;20027;-95
2021/03/07 08:11:54;;;;;;;1999.90;999.90;;;2.80;99.90;;;;;;5936506;24;20525;-96
2021/03/07 08:14:35;;;;;;;1999.90;999.90;;;2.80;99.90;;;;;;6095261;23;20030;-95
2021/03/07 08:17:56;;;;;;;;;;;;;;;;;;;;;
2021/03/07 08:21:38;;;;;;;1999.90;999.90;;;3.00;99.90;;;;;;6190738;23;20056;-94
2021/03/07 08:24:21;;;;;;;1999.90;999.90;;;3.10;99.90;;;;;;6188515;23;20096;-95
2021/03/07 08:27:14;;;;;;;1999.90;999.90;;;3.10;99.90;;;;;;6189032;23;20448;-95
2021/03/07 08:29:49;;;;;;;1999.90;999.90;;;3.20;99.90;;;;;;6188483;23;20080;-95
2021/03/07 08:32:31;;;;;;;1999.90;999.90;;;3.30;99.90;;;;;;6188691;23;20040;-95
2021/03/07 08:35:01;;;;;;;1999.90;999.90;;;3.30;99.90;;;;;;6189341;23;20087;-95
2021/03/07 08:37:30;;;;;;;1999.90;999.90;;;3.40;99.90;;;;;;6189549;23;20025;-96
2021/03/07 08:40:42;;;;;;;1999.90;999.90;;;3.50;99.90;;;;;;6188130;23;20091;-94
2021/03/07 08:43:51;;;;;;;1999.90;999.90;;;3.50;99.90;;;;;;6189082;23;20425;-95
2021/03/07 08:46:28;;;;;;;1999.90;999.90;;;3.60;99.90;;;;;;6189065;23;20063;-93
2021/03/07 08:49:09;;;;;;;1999.90;999.90;;;3.70;99.90;;;;;;6188750;23;20024;-96
2021/03/07 08:51:42;;;;;;;1999.90;999.90;;;3.70;99.90;;;;;;6189867;23;20025;-96
2021/03/07 08:54:11;;;;;;;1999.90;999.90;;;3.80;99.90;;;;;;6190978;23;20028;-95
2021/03/07 08:56:54;;;;;;;1999.90;999.90;;;3.80;99.90;;;;;;6190490;23;20032;-95
2021/03/07 08:59:26;;;;;;;1999.90;999.90;;;3.90;99.90;;;;;;6190680;23;20025;-95
2021/03/07 09:01:55;;;;;;;1999.90;999.90;;;4.00;99.90;;;;;;6192003;23;20028;-94
2021/03/07 09:04:36;;;;;;;1999.90;999.90;;;4.00;99.90;;;;;;6202010;23;20017;-93
2021/03/07 09:07:04;;;;;;;1999.90;999.90;;;4.10;99.90;;;;;;6209397;23;20024;-93
2021/03/07 09:09:34;;;;;;;1999.90;999.90;;;4.10;99.90;;;;;;6191092;23;20036;-93
2021/03/07 09:12:06;;;;;;;1999.90;999.90;;;4.20;99.90;;;;;;6190071;23;20341;-93
2021/03/07 09:14:42;;;;;;;1999.90;999.90;;;4.20;99.90;;;;;;6188991;23;20021;-94
2021/03/07 09:17:19;;;;;;;1999.90;999.90;;;4.30;99.90;;;;;;6188741;23;20025;-94
2021/03/07 09:20:04;;;;;;;1999.90;999.90;;;4.30;99.90;;;;;;6188523;23;20389;-94
2021/03/07 09:22:31;;;;;;;1999.90;999.90;;;4.50;99.90;;;;;;6188714;23;20318;-96
2021/03/07 09:25:07;;;;;;;1999.90;999.90;;;4.50;99.90;;;;;;6188279;23;20023;-95
2021/03/07 09:27:41;;;;;;;1999.90;999.90;;;4.60;99.90;;;;;;6189593;23;20025;-94
2021/03/07 09:33:29;;;;;;;1999.90;999.90;;;4.70;99.90;;;;;;6191853;23;20071;-94
2021/03/07 09:36:04;;;;;;;1999.90;999.90;;;4.80;99.90;;;;;;6189433;23;20025;-93
2021/03/07 09:38:38;;;;;;;;;;;4.80;99.90;;;;;;6192104;23;20025;-94
2021/03/07 09:41:09;;;;;;;1999.90;999.90;;;4.80;99.90;;;;;;6190157;23;19932;-95
2021/03/07 09:43:47;;;;;;;1999.90;999.90;;;4.80;99.90;;;;;;6188191;23;20017;-93
2021/03/07 09:46:20;;;;;;;1999.90;999.90;;;4.90;99.90;;;;;;6190711;23;20028;-96
2021/03/07 09:48:49;;;;;;;1999.90;999.90;;;4.90;99.90;;;;;;6190030;23;20024;-96
2021/03/07 09:51:18;;;;;;;1999.90;999.90;;;5.00;99.90;;;;;;6190042;23;20087;-96
2021/03/07 09:54:12;;;;;;;1999.90;999.90;;;5.00;99.90;;;;;;6216657;23;20025;-96
2021/03/07 09:56:42;;;;;;;1999.90;999.90;;;4.90;99.90;;;;;;6221428;23;20027;-96
2021/03/07 09:59:35;;;;;;;1999.90;999.90;;;5.00;99.90;;;;;;6221812;23;20031;-96
2021/03/07 10:02:12;;;;;;;1999.90;999.90;;;5.00;99.90;;;;;;6223006;23;20024;-96
2021/03/07 10:04:47;;;;;;;1999.90;999.90;;;5.00;99.90;;;;;;6223161;23;20043;-96
2021/03/07 10:07:22;;;;;;;1999.90;999.90;;;5.00;99.90;;;;;;6229205;23;20025;-96
2021/03/07 10:09:57;;;;;;;1999.90;999.90;;;5.00;99.50;;;;;;6229834;23;20024;-96
2021/03/07 10:12:24;;;;;;;1999.90;999.90;;;5.10;99.30;;;;;;6227786;23;20024;-96
2021/03/07 10:14:53;;;;;;;1999.90;999.90;;;5.10;99.40;;;;;;6229837;23;20016;-96
2021/03/07 10:17:22;;;;;;;1999.90;999.90;;;5.10;99.50;;;;;;6226271;23;20024;-96
2021/03/07 10:19:51;;;;;;;1999.90;999.90;;;5.10;99.10;;;;;;6220002;23;20020;-95
2021/03/07 10:22:19;;;;;;;1999.90;999.90;;;5.10;99.00;;;;;;6221435;23;20463;-96
2021/03/07 10:24:53;;;;;;;1999.90;999.90;;;5.10;99.10;;;;;;6220827;23;20459;-96
2021/03/07 10:27:40;;;;;;;1999.90;999.90;;;5.20;98.90;;;;;;6224952;23;20024;-95
2021/03/07 10:34:08;;;;;;;1999.90;999.90;;;5.30;98.50;;;;;;6228531;23;20021;-95
2021/03/07 10:44:25;;;;;;;1999.90;999.90;;;5.30;98.70;;;;;;6226509;23;20066;-93
2021/03/07 10:46:53;;;;;;;1999.90;999.90;;;5.30;99.10;;;;;;6225572;23;20382;-95
2021/03/07 10:49:26;;;;;;;1999.90;999.90;;;5.40;99.00;;;;;;6227990;23;20040;-93
2021/03/07 10:51:53;;;;;;;1999.90;999.90;;;5.40;99.30;;;;;;6222247;23;20103;-95
2021/03/07 10:54:24;;;;;;;1999.90;999.90;;;5.30;98.70;;;;;;6222723;23;20021;-94
2021/03/07 10:56:53;;;;;;;1999.90;999.90;;;5.40;99.40;;;;;;6222678;23;20025;-93
2021/03/07 10:59:24;;;;;;;1999.90;999.90;;;5.30;99.20;;;;;;6222095;23;20325;-94
2021/03/07 11:01:53;;;;;;;1999.90;999.90;;;5.30;99.40;;;;;;6222008;23;20515;-93
2021/03/07 11:07:28;;;;;;;1999.90;999.90;;;5.50;99.90;;;;;;6158711;23;20021;-94
2021/03/07 11:09:55;;;;;;;1999.90;999.90;;;5.50;99.40;;;;;;6220100;23;20031;-92
2021/03/07 11:12:22;;;;;;;1999.90;999.90;;;5.50;99.30;;;;;;6219489;23;20055;-95
2021/03/07 11:14:50;;;;;;;1999.90;999.90;;;5.60;99.50;;;;;;6230786;23;20028;-94
2021/03/07 11:17:18;;;;;;;1999.90;999.90;;;5.60;99.40;;;;;;6224408;23;20090;-96
2021/03/07 11:19:45;;;;;;;1999.90;999.90;;;5.60;99.30;;;;;;6223657;23;20044;-95
2021/03/07 11:22:13;;;;;;;1999.90;999.90;;;5.60;99.20;;;;;;6224117;23;20024;-95
2021/03/07 11:24:43;;;;;;;1999.90;999.90;;;5.60;98.90;;;;;;6224343;23;20016;-94
2021/03/07 11:27:42;;;;;;;1999.90;999.90;;;5.60;98.90;;;;;;6226137;23;20444;-93
2021/03/07 11:30:14;;;;;;;1999.90;999.90;;;5.50;98.90;;;;;;6226319;23;20352;-95
2021/03/07 11:33:37;;;;;;;1999.90;999.90;;;5.50;98.90;;;;;;6226293;23;20474;-94
2021/03/07 11:36:14;;;;;;;1999.90;999.90;;;5.50;98.70;;;;;;6228911;23;20031;-96
2021/03/07 11:38:45;;;;;;;1999.90;999.90;;;5.50;98.70;;;;;;6237143;23;20036;-95
2021/03/07 11:41:20;;;;;;;1999.90;999.90;;;5.60;99.00;;;;;;6239789;23;20009;-95
2021/03/07 11:43:50;;;;;;;1999.90;999.90;;;5.60;98.70;;;;;;6238479;23;20049;-96
2021/03/07 11:54:20;;;;;;;1999.90;999.90;;;5.60;98.70;;;;;;6123453;23;20090;-96
2021/03/07 11:56:53;;;;;;;1999.90;999.90;;;5.70;98.70;;;;;;6127698;23;20081;-94
2021/03/07 11:59:31;;;;;;;1999.90;999.90;;;5.80;98.90;;;;;;6128201;23;20350;-95
2021/03/07 12:01:59;;;;;;;1999.90;999.90;;;5.90;99.10;;;;;;6128811;23;20446;-95
2021/03/07 12:04:31;;;;;;;1999.90;999.90;;;5.90;98.30;;;;;;6127769;23;20018;-94
2021/03/07 12:07:41;;;;;;;1999.90;999.90;;;6.00;98.00;;;;;;6128622;23;20049;-95
2021/03/07 12:22:13;;;;;;;1999.90;999.90;;;6.10;95.30;;;;;;6080512;23;20077;-96
2021/03/07 12:32:52;;;;;;;1999.90;999.90;;;6.00;95.30;;;;;;5851070;24;20042;-96
2021/03/07 12:42:46;;;;;;;1999.90;999.90;;;6.00;95.00;;;;;;5958551;24;20008;-96
2021/03/07 12:45:20;;;;;;;1999.90;999.90;;;6.10;95.00;;;;;;5964151;23;20044;-96
2021/03/07 12:47:52;;;;;;;1999.90;999.90;;;6.00;94.90;;;;;;6068781;23;20152;-96
2021/03/07 12:50:26;;;;;;;1999.90;999.90;;;6.10;94.90;;;;;;6139644;23;20013;-96
2021/03/07 12:57:01;;;;;;;1999.90;999.90;;;6.10;94.70;;;;;;6157794;23;20494;-95
2021/03/07 13:00:00;;;;;;;1999.90;999.90;;;6.20;94.80;;;;;;6178852;23;20025;-95
2021/03/07 13:02:32;;;;;;;1999.90;999.90;;;6.20;94.80;;;;;;6193155;23;20441;-96
2021/03/07 13:43:37;;;;;;;1999.90;999.90;;;6.60;93.10;;;;;;6218308;22;20036;-96
2021/03/07 13:46:29;;;;;;;1999.90;999.90;;;6.60;93.50;;;;;;6226171;23;20031;-95
2021/03/07 13:49:10;;;;;;;1999.90;999.90;;;6.60;92.60;;;;;;6219194;23;20024;-96
2021/03/07 13:52:04;;;;;;;1999.90;999.90;;;6.60;92.70;;;;;;6226374;23;20079;-96
2021/03/07 13:59:14;;;;;;;1999.90;999.90;;;6.80;93.10;;;;;;6103399;23;20029;-94
2021/03/07 14:05:25;;;;;;;1999.90;999.90;;;6.80;93.40;;;;;;6192955;23;20024;-93
2021/03/07 14:07:53;;;;;;;1999.90;999.90;;;6.80;92.90;;;;;;6236518;23;20070;-94
2021/03/07 14:11:06;;;;;;;;;;;;;;;;;;;;;
2021/03/07 14:14:05;;;;;;;1999.90;999.90;;;6.90;93.40;;;;;;6195574;23;20048;-93
2021/03/07 14:17:25;;;;;;;1999.90;999.90;;;6.90;93.00;;;;;;6221463;23;20028;-94
2021/03/07 14:20:03;;;;;;;1999.90;999.90;;;6.90;93.60;;;;;;6097316;23;20032;-93
2021/03/07 14:22:45;;;;;;;1999.90;999.90;;;7.00;93.50;;;;;;6218120;23;20060;-94
2021/03/07 14:25:14;;;;;;;1999.90;999.90;;;7.00;93.00;;;;;;6220528;23;20017;-94
2021/03/07 14:27:42;;;;;;;1999.90;999.90;;;7.00;92.70;;;;;;6220797;23;20424;-94
2021/03/07 14:30:12;;;;;;;1999.90;999.90;;;7.10;92.70;;;;;;6221709;23;20044;-93
2021/03/07 14:32:41;;;;;;;1999.90;999.90;;;7.10;93.00;;;;;;6219621;23;20087;-94
2021/03/07 14:35:12;;;;;;;1999.90;999.90;;;7.10;92.40;;;;;;6218045;23;20095;-94
2021/03/07 14:38:24;;;;;;;1999.90;999.90;;;7.10;92.40;;;;;;6219416;23;20044;-94
2021/03/07 14:41:25;;;;;;;1999.90;999.90;;;7.10;92.70;;;;;;6086033;23;20038;-92
2021/03/07 14:44:11;;;;;;;1999.90;999.90;;;7.10;93.30;;;;;;6204853;23;20423;-93
2021/03/07 14:46:48;;;;;;;1999.90;999.90;;;7.00;92.90;;;;;;6219725;23;20025;-93
2021/03/07 14:49:16;;;;;;;1999.90;999.90;;;7.00;93.30;;;;;;6219329;23;20031;-94
2021/03/07 14:56:34;;;;;;;1999.90;999.90;;;7.00;92.70;;;;;;6234198;23;20035;-96
2021/03/07 14:59:33;;;;;;;1999.90;999.90;;;7.00;93.40;;;;;;6235728;23;20024;-96
2021/03/07 15:07:19;;;;;;;1999.90;999.90;;;6.80;92.90;;;;;;6199442;22;20038;-96
2021/03/07 15:09:48;;;;;;;1999.90;999.90;;;6.80;93.10;;;;;;6253199;22;20082;-96
2021/03/07 15:12:18;;;;;;;1999.90;999.90;;;6.90;93.30;;;;;;6259519;23;20043;-95
2021/03/07 15:14:47;;;;;;;1999.90;999.90;;;6.80;93.40;;;;;;6262943;23;20043;-96
2021/03/07 15:17:14;;;;;;;1999.90;999.90;;;6.80;93.50;;;;;;6261910;23;20021;-96
2021/03/07 15:24:28;;;;;;;1999.90;999.90;;;6.80;93.30;;;;;;6118674;23;20081;-96
2021/03/07 15:27:24;;;;;;;1999.90;999.90;;;6.70;94.00;;;;;;6170498;23;20099;-95
2021/03/07 15:29:57;;;;;;;1999.90;999.90;;;6.60;93.80;;;;;;6260460;23;20028;-96
2021/03/07 15:32:24;;;;;;;1999.90;999.90;;;6.60;94.00;;;;;;6270795;23;20038;-95
2021/03/07 15:34:56;;;;;;;1999.90;999.90;;;6.50;94.10;;;;;;6269521;23;20072;-96
2021/03/07 15:37:24;;;;;;;1999.90;999.90;;;6.50;94.20;;;;;;6262844;23;20024;-96
2021/03/07 15:39:54;;;;;;;1999.90;999.90;;;6.40;94.50;;;;;;6257178;23;20111;-96
2021/03/07 15:42:30;;;;;;;1999.90;999.90;;;6.40;94.80;;;;;;6253610;23;20024;-95
2021/03/07 15:45:03;;;;;;;1999.90;999.90;;;6.40;95.10;;;;;;6253052;23;20459;-95
2021/03/07 15:47:38;;;;;;;1999.90;999.90;;;6.50;95.20;;;;;;6251986;23;20032;-96
2021/03/07 15:50:14;;;;;;;1999.90;999.90;;;6.50;95.00;;;;;;6251469;23;20024;-96
2021/03/07 15:52:46;;;;;;;1999.90;999.90;;;6.50;95.00;;;;;;6251933;23;20024;-96
2021/03/07 15:55:26;;;;;;;1999.90;999.90;;;6.60;94.70;;;;;;6250906;23;20017;-95
2021/03/07 15:57:54;;;;;;;1999.90;999.90;;;6.60;94.70;;;;;;6251309;23;20446;-96
2021/03/07 16:00:30;;;;;;;1999.90;999.90;;;6.50;94.30;;;;;;6250719;23;20035;-95
2021/03/07 16:03:01;;;;;;;1999.90;999.90;;;6.40;94.50;;;;;;6251389;23;20024;-96
2021/03/07 16:05:31;;;;;;;1999.90;999.90;;;6.40;94.70;;;;;;6251065;23;20020;-94
2021/03/07 16:07:59;;;;;;;1999.90;999.90;;;6.30;94.90;;;;;;6251503;23;20031;-96
2021/03/07 16:10:42;;;;;;;1999.90;999.90;;;6.30;95.40;;;;;;6251810;23;20028;-95
2021/03/07 16:13:17;;;;;;;1999.90;999.90;;;6.20;95.40;;;;;;6254386;23;20024;-92
2021/03/07 16:16:11;;;;;;;1999.90;999.90;;;6.20;95.80;;;;;;6254523;23;20075;-92
2021/03/07 16:18:58;;;;;;;1999.90;999.90;;;6.20;96.00;;;;;;6254310;23;20024;-96
2021/03/07 16:22:00;;;;;;;;;;;;;;;;;;;;;
2021/03/07 16:28:00;;;;;;;1999.90;999.90;;;6.10;96.20;;;;;;6251308;23;20024;-95